Time;durP1;ratioP1;P1;durP2;ratioP2;P2;SDS_P1;SDS_P2;PMS_P1;PMS_P2;Temp;Humidity;BMP_temperature;BMP_pressure;BME280_temperature;BME280_humidity;BME280_pressure;Samples;Min_cycle;Max_cycle;Signal;HPM_P1;HPM_P2
2022/03/10 00:02:22;;;;;;;30.07;14.17;;;3.20;61.30;;;;;;5091668;28;20417;-75
2022/03/10 00:04:47;;;;;;;32.80;15.90;;;3.20;61.00;;;;;;5085260;28;20190;-74
2022/03/10 00:07:13;;;;;;;37.57;16.73;;;3.20;61.00;;;;;;5089819;28;20425;-73
2022/03/10 00:09:39;;;;;;;38.83;15.20;;;3.20;61.50;;;;;;5089984;28;20203;-73
2022/03/10 00:12:05;;;;;;;33.80;15.30;;;3.20;61.60;;;;;;5089834;28;20214;-76
2022/03/10 00:14:31;;;;;;;33.60;15.30;;;3.20;61.70;;;;;;5090922;28;20900;-75
2022/03/10 00:16:57;;;;;;;34.60;14.70;;;3.20;61.60;;;;;;5090579;28;20423;-75
2022/03/10 00:19:22;;;;;;;35.73;15.17;;;3.10;61.70;;;;;;5090408;28;20642;-71
2022/03/10 00:21:49;;;;;;;37.27;15.20;;;3.10;61.90;;;;;;5090478;28;20433;-74
2022/03/10 00:24:16;;;;;;;37.40;16.33;;;3.00;62.30;;;;;;5089571;28;20195;-74
2022/03/10 00:26:42;;;;;;;30.80;15.37;;;3.00;62.50;;;;;;5086427;28;20445;-72
2022/03/10 00:29:08;;;;;;;33.03;14.50;;;3.00;62.60;;;;;;5073365;28;20491;-76
2022/03/10 00:31:34;;;;;;;37.03;16.30;;;3.00;62.60;;;;;;5091974;28;20465;-74
2022/03/10 00:34:01;;;;;;;38.53;17.37;;;3.00;63.20;;;;;;5091907;28;20184;-73
2022/03/10 00:36:27;;;;;;;30.53;15.40;;;2.90;63.40;;;;;;5092415;28;20425;-76
2022/03/10 00:38:52;;;;;;;31.27;13.90;;;2.90;63.50;;;;;;5092047;28;20424;-74
2022/03/10 00:41:18;;;;;;;34.33;14.30;;;2.90;63.80;;;;;;5074265;28;20680;-73
2022/03/10 00:43:44;;;;;;;29.30;15.83;;;2.80;63.70;;;;;;5074210;28;20183;-75
2022/03/10 00:46:10;;;;;;;35.27;15.67;;;2.80;63.70;;;;;;5091399;28;20688;-73
2022/03/10 00:48:39;;;;;;;31.03;14.77;;;2.80;64.10;;;;;;5091702;28;20445;-73
2022/03/10 00:51:06;;;;;;;30.10;15.63;;;2.70;64.40;;;;;;5075575;28;21030;-73
2022/03/10 00:53:32;;;;;;;35.40;16.70;;;2.80;64.20;;;;;;5094897;28;20513;-75
2022/03/10 00:55:58;;;;;;;37.50;15.77;;;2.70;64.10;;;;;;5076095;28;20179;-79
2022/03/10 00:58:24;;;;;;;37.63;14.10;;;2.70;63.80;;;;;;5097911;28;20175;-73
2022/03/10 01:00:51;;;;;;;35.70;13.33;;;2.70;64.20;;;;;;5100233;28;20206;-73
2022/03/10 01:03:17;;;;;;;26.93;14.53;;;2.70;64.20;;;;;;5095215;28;20508;-75
2022/03/10 01:05:44;;;;;;;37.90;15.90;;;2.70;64.10;;;;;;5096795;28;20421;-74
2022/03/10 01:08:10;;;;;;;34.00;14.87;;;2.70;63.80;;;;;;5095885;28;20914;-73
2022/03/10 01:10:35;;;;;;;39.50;15.93;;;2.70;63.80;;;;;;5095340;28;20505;-74
2022/03/10 01:13:02;;;;;;;27.13;13.20;;;2.70;63.70;;;;;;5095520;28;20265;-74
2022/03/10 01:15:28;;;;;;;30.83;15.50;;;2.70;63.40;;;;;;5095425;28;20413;-75
2022/03/10 01:17:55;;;;;;;28.67;12.97;;;2.70;63.40;;;;;;5095092;28;20448;-72
2022/03/10 01:20:23;;;;;;;30.40;14.60;;;2.60;63.70;;;;;;5095359;28;20436;-73
2022/03/10 01:22:49;;;;;;;31.20;13.17;;;2.60;63.90;;;;;;5099736;28;20217;-76
2022/03/10 01:25:16;;;;;;;28.17;12.63;;;2.60;64.50;;;;;;5088992;28;20424;-72
2022/03/10 01:27:42;;;;;;;26.23;13.30;;;2.60;64.50;;;;;;5109963;28;20516;-75
2022/03/10 01:30:09;;;;;;;28.77;14.23;;;2.60;64.40;;;;;;5109760;28;20899;-73
2022/03/10 01:32:35;;;;;;;37.70;15.40;;;2.60;64.70;;;;;;5094361;28;20199;-74
2022/03/10 01:35:05;;;;;;;31.70;13.83;;;2.60;64.80;;;;;;5094493;28;20428;-75
2022/03/10 01:37:32;;;;;;;29.73;12.47;;;2.50;64.70;;;;;;5094366;28;20455;-76
2022/03/10 01:39:58;;;;;;;30.57;13.30;;;2.60;65.00;;;;;;5094880;28;20437;-74
2022/03/10 01:42:24;;;;;;;29.90;13.13;;;2.60;65.10;;;;;;5094893;28;20475;-72
2022/03/10 01:44:54;;;;;;;26.33;12.40;;;2.60;65.00;;;;;;5097162;28;20994;-76
2022/03/10 01:47:19;;;;;;;29.23;12.43;;;2.50;65.00;;;;;;5097765;28;20198;-75
2022/03/10 01:49:45;;;;;;;29.53;13.23;;;2.50;65.30;;;;;;5096080;28;20453;-74
2022/03/10 01:52:11;;;;;;;22.70;12.27;;;2.50;65.30;;;;;;5095024;28;20225;-75
2022/03/10 01:54:39;;;;;;;24.50;11.40;;;2.40;65.70;;;;;;5095168;28;20175;-73
2022/03/10 01:57:05;;;;;;;22.58;11.32;;;2.40;66.00;;;;;;5094388;28;20471;-74
2022/03/10 01:59:32;;;;;;;26.00;12.33;;;2.40;66.30;;;;;;5095467;28;20203;-74
2022/03/10 02:01:57;;;;;;;22.15;11.55;;;2.40;66.40;;;;;;5094761;28;20183;-74
2022/03/10 02:04:23;;;;;;;29.10;12.43;;;2.40;66.60;;;;;;5088417;28;20187;-72
2022/03/10 02:06:49;;;;;;;23.80;11.60;;;2.40;66.60;;;;;;5096002;28;20179;-75
2022/03/10 02:11:59;;;;;;;29.85;11.80;;;2.30;66.90;;;;;;5092971;28;20206;-73
2022/03/10 02:17:21;;;;;;;25.13;11.70;;;2.30;67.30;;;;;;5092698;28;20237;-72
2022/03/10 02:20:05;;;;;;;21.53;10.70;;;2.30;67.60;;;;;;5092497;28;20267;-72
2022/03/10 02:22:31;;;;;;;29.33;12.43;;;2.30;67.50;;;;;;5092342;28;20476;-72
2022/03/10 02:24:57;;;;;;;25.20;11.13;;;2.20;67.50;;;;;;5092391;28;20187;-73
2022/03/10 02:27:25;;;;;;;23.35;10.77;;;2.20;67.50;;;;;;5088040;28;20212;-73
2022/03/10 02:29:58;;;;;;;30.92;13.50;;;2.10;67.60;;;;;;5091814;28;20642;-74
2022/03/10 02:32:24;;;;;;;34.93;15.93;;;2.10;67.60;;;;;;5092480;28;20207;-72
2022/03/10 02:34:50;;;;;;;38.33;15.35;;;2.10;67.90;;;;;;5079245;28;20425;-76
2022/03/10 02:37:17;;;;;;;31.40;13.27;;;2.10;67.90;;;;;;5092070;28;20318;-72
2022/03/10 02:39:43;;;;;;;30.23;13.02;;;2.00;68.20;;;;;;5092102;28;20528;-72
2022/03/10 02:42:10;;;;;;;26.23;12.48;;;2.00;68.50;;;;;;5078954;28;20990;-74
2022/03/10 02:44:48;;;;;;;28.27;12.70;;;2.00;68.50;;;;;;5093437;28;20225;-73
2022/03/10 02:47:15;;;;;;;30.23;13.50;;;2.00;68.50;;;;;;5097172;28;20187;-74
2022/03/10 02:49:41;;;;;;;27.67;13.00;;;2.00;68.60;;;;;;5098094;28;20469;-74
2022/03/10 02:52:08;;;;;;;25.65;12.18;;;1.90;68.60;;;;;;5082807;28;20214;-72
2022/03/10 02:54:34;;;;;;;23.17;12.37;;;1.90;68.90;;;;;;5091979;28;20207;-72
2022/03/10 02:57:00;;;;;;;20.80;10.17;;;1.90;68.90;;;;;;5091357;28;20503;-72
2022/03/10 02:59:26;;;;;;;29.33;13.15;;;1.90;69.10;;;;;;5091408;28;20677;-72
2022/03/10 03:01:52;;;;;;;27.23;12.40;;;1.90;69.10;;;;;;5091529;28;20267;-73
2022/03/10 03:04:17;;;;;;;35.90;14.90;;;1.80;69.20;;;;;;5068755;28;20429;-73
2022/03/10 03:06:43;;;;;;;31.00;14.90;;;1.80;69.20;;;;;;5091082;28;20425;-74
2022/03/10 03:09:09;;;;;;;24.40;12.00;;;1.70;69.50;;;;;;5079804;28;20774;-75
2022/03/10 03:11:35;;;;;;;19.20;11.07;;;1.70;69.80;;;;;;5075567;28;20468;-76
2022/03/10 03:14:01;;;;;;;23.70;11.20;;;1.80;69.80;;;;;;5091680;28;20429;-76
2022/03/10 03:16:28;;;;;;;36.47;13.95;;;1.70;69.90;;;;;;5090694;28;20649;-74
2022/03/10 03:18:54;;;;;;;26.83;12.63;;;1.70;69.80;;;;;;5090625;28;20187;-76
2022/03/10 03:21:20;;;;;;;30.93;13.33;;;1.70;69.90;;;;;;5091529;28;20599;-75
2022/03/10 03:23:47;;;;;;;25.58;11.75;;;1.70;69.90;;;;;;5091888;28;20425;-76
2022/03/10 03:26:14;;;;;;;28.80;12.18;;;1.60;70.10;;;;;;5091009;28;20266;-76
2022/03/10 03:28:40;;;;;;;24.10;10.55;;;1.60;70.20;;;;;;5073550;28;20214;-76
2022/03/10 03:31:05;;;;;;;25.20;12.13;;;1.50;70.20;;;;;;5090799;28;20685;-75
2022/03/10 03:33:31;;;;;;;25.00;11.57;;;1.50;70.40;;;;;;5078498;28;20492;-75
2022/03/10 03:35:58;;;;;;;30.17;14.00;;;1.50;70.50;;;;;;5090698;28;20197;-76
2022/03/10 03:38:24;;;;;;;31.75;13.38;;;1.50;70.50;;;;;;5079218;28;20229;-75
2022/03/10 03:40:50;;;;;;;31.08;14.68;;;1.60;70.70;;;;;;5102066;28;20210;-73
2022/03/10 03:43:15;;;;;;;27.20;14.07;;;1.50;70.40;;;;;;5090171;28;20175;-76
2022/03/10 03:45:41;;;;;;;34.93;13.53;;;1.40;71.00;;;;;;5101874;28;20258;-72
2022/03/10 03:48:07;;;;;;;28.57;13.80;;;1.40;71.00;;;;;;5097646;28;20198;-74
2022/03/10 03:50:33;;;;;;;27.17;12.80;;;1.40;71.10;;;;;;5091672;28;20222;-74
2022/03/10 03:52:58;;;;;;;30.80;13.33;;;1.40;71.40;;;;;;5091135;28;20207;-73
2022/03/10 03:55:24;;;;;;;34.23;15.43;;;1.30;71.60;;;;;;5090901;28;20189;-75
2022/03/10 03:57:50;;;;;;;34.23;15.10;;;1.30;71.70;;;;;;5071715;28;20233;-75
2022/03/10 04:00:16;;;;;;;27.27;13.40;;;1.30;71.80;;;;;;5080604;28;20199;-75
2022/03/10 04:02:42;;;;;;;25.60;12.05;;;1.30;71.80;;;;;;5091243;28;20179;-76
2022/03/10 04:05:08;;;;;;;29.83;13.30;;;1.20;72.10;;;;;;5091041;28;20198;-76
2022/03/10 04:07:35;;;;;;;29.08;13.55;;;1.30;72.30;;;;;;5091171;28;20179;-75
2022/03/10 04:10:01;;;;;;;28.08;13.73;;;1.30;72.10;;;;;;5092736;28;20203;-77
2022/03/10 04:12:27;;;;;;;28.85;13.45;;;1.30;72.10;;;;;;5091804;28;20226;-77
2022/03/10 04:14:52;;;;;;;25.97;12.97;;;1.20;72.10;;;;;;5095517;28;20205;-76
2022/03/10 04:17:18;;;;;;;35.90;15.67;;;1.20;72.10;;;;;;5105631;28;20175;-75
2022/03/10 04:19:44;;;;;;;32.47;14.00;;;1.20;72.30;;;;;;5073489;28;20212;-73
2022/03/10 04:22:10;;;;;;;32.63;13.10;;;1.20;72.40;;;;;;5092298;28;20179;-72
2022/03/10 04:24:36;;;;;;;28.17;12.83;;;1.20;72.10;;;;;;5091706;28;20494;-73
2022/03/10 04:27:02;;;;;;;33.17;14.30;;;1.10;72.00;;;;;;5089801;28;20347;-74
2022/03/10 04:29:27;;;;;;;26.53;13.10;;;1.10;72.40;;;;;;5086337;28;20280;-74
2022/03/10 04:31:53;;;;;;;31.90;13.53;;;1.10;72.70;;;;;;5092941;28;20464;-76
2022/03/10 04:34:19;;;;;;;35.50;15.37;;;1.10;73.00;;;;;;5093788;28;20305;-73
2022/03/10 04:36:45;;;;;;;28.30;14.00;;;1.00;73.20;;;;;;5093933;28;20664;-73
2022/03/10 04:39:11;;;;;;;32.93;14.00;;;0.90;73.20;;;;;;5094179;28;20198;-74
2022/03/10 04:41:36;;;;;;;33.83;13.87;;;0.90;73.60;;;;;;5094796;28;20417;-71
2022/03/10 04:44:03;;;;;;;36.30;14.60;;;0.90;73.60;;;;;;5094840;28;20421;-73
2022/03/10 04:46:29;;;;;;;36.53;15.70;;;0.80;73.70;;;;;;5093957;28;20194;-74
2022/03/10 04:48:55;;;;;;;32.83;14.07;;;0.80;74.00;;;;;;5100014;28;20193;-75
2022/03/10 04:51:21;;;;;;;32.08;13.57;;;0.80;74.20;;;;;;5097540;28;20311;-73
2022/03/10 04:53:47;;;;;;;30.77;13.83;;;0.90;74.20;;;;;;5097735;28;20183;-74
2022/03/10 04:56:13;;;;;;;34.93;14.30;;;0.80;74.20;;;;;;5098268;28;20409;-75
2022/03/10 04:58:39;;;;;;;26.63;14.20;;;0.80;74.30;;;;;;5100289;28;20171;-73
2022/03/10 05:01:04;;;;;;;30.50;14.20;;;0.80;74.50;;;;;;5102599;28;20203;-74
2022/03/10 05:03:33;;;;;;;23.53;12.50;;;0.80;74.50;;;;;;5082930;28;20418;-74
2022/03/10 05:06:00;;;;;;;35.97;14.30;;;0.80;74.50;;;;;;5078287;28;20183;-73
2022/03/10 05:08:25;;;;;;;24.15;13.38;;;0.90;73.90;;;;;;5097173;28;20175;-74
2022/03/10 05:10:51;;;;;;;28.83;14.00;;;0.90;73.70;;;;;;5099188;28;20229;-73
2022/03/10 05:13:17;;;;;;;33.77;15.00;;;0.90;74.00;;;;;;5099961;28;20238;-73
2022/03/10 05:15:43;;;;;;;31.63;13.60;;;0.90;74.00;;;;;;5098214;28;20206;-74
2022/03/10 05:18:09;;;;;;;33.83;13.53;;;0.90;74.20;;;;;;5097224;28;20210;-73
2022/03/10 05:20:35;;;;;;;28.67;12.45;;;0.90;74.00;;;;;;5095548;28;20203;-73
2022/03/10 05:23:02;;;;;;;31.90;13.23;;;1.00;73.90;;;;;;5094080;28;20194;-74
2022/03/10 05:25:36;;;;;;;26.15;12.30;;;0.90;73.70;;;;;;5076502;28;20606;-73
2022/03/10 05:28:03;;;;;;;27.25;12.40;;;0.90;73.30;;;;;;5092048;28;20184;-74
2022/03/10 05:30:29;;;;;;;26.35;12.25;;;0.90;73.20;;;;;;5079232;28;20225;-72
2022/03/10 05:32:56;;;;;;;22.37;11.17;;;0.90;73.30;;;;;;5095500;28;20673;-73
2022/03/10 05:35:22;;;;;;;32.00;13.50;;;1.00;73.50;;;;;;5076550;28;20463;-74
2022/03/10 05:37:48;;;;;;;30.23;13.30;;;1.00;73.50;;;;;;5094718;28;20241;-75
2022/03/10 05:40:19;;;;;;;36.72;14.32;;;1.00;73.30;;;;;;5093495;28;20716;-74
2022/03/10 05:42:46;;;;;;;27.27;13.15;;;1.00;73.20;;;;;;5089264;28;20202;-74
2022/03/10 05:45:13;;;;;;;33.42;12.93;;;0.90;73.30;;;;;;5094049;28;20187;-73
2022/03/10 05:47:39;;;;;;;29.58;13.18;;;0.90;73.60;;;;;;5083467;28;20183;-73
2022/03/10 05:50:09;;;;;;;31.85;12.98;;;0.90;73.50;;;;;;5100803;28;20219;-75
2022/03/10 05:52:35;;;;;;;32.58;13.02;;;0.90;73.70;;;;;;5092981;28;20207;-74
2022/03/10 05:55:01;;;;;;;28.40;12.60;;;0.90;73.60;;;;;;5092782;28;20208;-73
2022/03/10 05:57:27;;;;;;;34.22;14.82;;;0.90;73.70;;;;;;5092077;28;20584;-74
2022/03/10 05:59:53;;;;;;;32.30;14.70;;;1.00;73.70;;;;;;5092290;28;20278;-74
2022/03/10 06:02:19;;;;;;;28.63;15.00;;;1.00;72.90;;;;;;5093432;28;20475;-71
2022/03/10 06:04:45;;;;;;;29.70;13.30;;;1.00;72.70;;;;;;5092043;28;20262;-74
2022/03/10 06:07:11;;;;;;;26.65;12.75;;;1.10;72.90;;;;;;5092273;28;20217;-72
2022/03/10 06:09:37;;;;;;;29.80;13.95;;;1.10;72.90;;;;;;5092976;28;20601;-73
2022/03/10 06:12:03;;;;;;;37.17;15.17;;;1.10;72.90;;;;;;5093178;28;20214;-72
2022/03/10 06:14:29;;;;;;;33.50;14.55;;;1.10;72.90;;;;;;5094353;28;20190;-74
2022/03/10 06:16:55;;;;;;;39.97;16.07;;;1.10;72.90;;;;;;5082916;28;20183;-73
2022/03/10 06:19:20;;;;;;;38.97;14.60;;;1.10;72.90;;;;;;5094190;28;20198;-72
2022/03/10 06:21:47;;;;;;;33.80;14.27;;;1.10;72.90;;;;;;5092769;28;20694;-73
2022/03/10 06:24:13;;;;;;;29.95;14.65;;;1.20;72.90;;;;;;5092536;28;20266;-74
2022/03/10 06:26:39;;;;;;;38.90;15.43;;;1.30;72.10;;;;;;5091977;28;20557;-73
2022/03/10 06:29:05;;;;;;;33.05;16.02;;;1.30;71.00;;;;;;5089340;28;20639;-72
2022/03/10 06:31:32;;;;;;;40.13;15.30;;;1.30;70.20;;;;;;5095911;28;20199;-72
2022/03/10 06:33:58;;;;;;;36.75;17.35;;;1.30;69.80;;;;;;5096801;28;20275;-74
2022/03/10 06:36:27;;;;;;;37.83;15.43;;;1.40;69.50;;;;;;5076849;28;20177;-75
2022/03/10 06:38:55;;;;;;;37.95;16.25;;;1.40;69.90;;;;;;5092282;28;20240;-76
2022/03/10 06:41:21;;;;;;;42.42;16.77;;;1.50;69.90;;;;;;5094968;28;20190;-75
2022/03/10 06:43:47;;;;;;;38.37;17.23;;;1.50;70.10;;;;;;5093278;28;20187;-77
2022/03/10 06:46:13;;;;;;;39.23;16.03;;;1.50;70.10;;;;;;5092090;28;20180;-75
2022/03/10 06:48:38;;;;;;;40.83;17.53;;;1.60;69.90;;;;;;5091971;28;20218;-75
2022/03/10 06:51:05;;;;;;;47.17;17.13;;;1.50;69.80;;;;;;5092605;28;20211;-77
2022/03/10 06:53:31;;;;;;;36.95;15.95;;;1.60;69.20;;;;;;5073344;28;20175;-76
2022/03/10 06:55:56;;;;;;;38.25;15.73;;;1.70;68.50;;;;;;5091585;28;20189;-76
2022/03/10 06:58:22;;;;;;;39.20;17.10;;;1.70;68.30;;;;;;5091310;28;20204;-77
2022/03/10 07:00:48;;;;;;;41.20;16.10;;;1.80;68.00;;;;;;5092043;28;20210;-78
2022/03/10 07:03:14;;;;;;;42.87;17.97;;;1.80;67.90;;;;;;5090587;28;20480;-75
2022/03/10 07:05:40;;;;;;;43.83;17.43;;;1.90;67.60;;;;;;5091690;28;20475;-75
2022/03/10 07:08:07;;;;;;;41.13;17.73;;;1.90;67.30;;;;;;5075308;28;20219;-75
2022/03/10 07:10:32;;;;;;;36.50;17.00;;;2.00;67.20;;;;;;5092948;28;20204;-76
2022/03/10 07:12:58;;;;;;;34.70;18.57;;;2.00;67.20;;;;;;5092374;28;20215;-73
2022/03/10 07:15:24;;;;;;;66.43;20.10;;;2.10;66.70;;;;;;5092028;28;20183;-76
2022/03/10 07:17:50;;;;;;;38.13;16.30;;;2.10;66.60;;;;;;5074158;28;20183;-74
2022/03/10 07:20:18;;;;;;;38.97;16.70;;;2.20;66.60;;;;;;5092014;28;20629;-75
2022/03/10 07:22:45;;;;;;;39.13;15.40;;;2.30;66.70;;;;;;5081066;28;20213;-75
2022/03/10 07:25:11;;;;;;;39.80;16.43;;;2.40;66.70;;;;;;5090816;28;20418;-75
2022/03/10 07:27:38;;;;;;;40.97;17.60;;;2.50;66.60;;;;;;5088013;28;20513;-76
2022/03/10 07:30:05;;;;;;;41.83;16.73;;;2.50;66.30;;;;;;5090971;28;20437;-76
2022/03/10 07:32:30;;;;;;;78.10;22.15;;;2.60;66.00;;;;;;5090437;28;20569;-76
2022/03/10 07:34:56;;;;;;;58.17;18.30;;;2.70;65.80;;;;;;5091230;28;20759;-76
2022/03/10 07:37:22;;;;;;;84.13;21.37;;;2.70;65.70;;;;;;5089917;28;20712;-72
2022/03/10 07:39:48;;;;;;;59.97;19.43;;;2.70;65.70;;;;;;5090130;28;20699;-75
2022/03/10 07:42:15;;;;;;;63.67;20.50;;;2.80;65.70;;;;;;5090374;28;20587;-75
2022/03/10 07:44:41;;;;;;;69.43;21.50;;;2.80;65.70;;;;;;5090854;28;20186;-71
2022/03/10 07:47:06;;;;;;;64.00;19.60;;;2.90;65.60;;;;;;5090005;28;20422;-75
2022/03/10 07:49:32;;;;;;;130.43;33.60;;;2.90;65.70;;;;;;5090237;28;20469;-75
2022/03/10 07:51:59;;;;;;;46.60;20.00;;;2.90;65.40;;;;;;5090586;28;20219;-74
2022/03/10 07:54:25;;;;;;;54.40;19.77;;;3.00;64.70;;;;;;5090589;28;20864;-74
2022/03/10 07:56:51;;;;;;;152.07;27.43;;;3.10;64.40;;;;;;5090308;28;20417;-74
2022/03/10 07:59:18;;;;;;;53.97;19.83;;;3.20;64.40;;;;;;5090331;28;20436;-73
2022/03/10 08:01:44;;;;;;;56.80;19.37;;;3.30;64.20;;;;;;5090504;28;20954;-75
2022/03/10 08:04:10;;;;;;;88.87;25.20;;;3.30;64.40;;;;;;5090190;28;20520;-75
2022/03/10 08:06:36;;;;;;;67.73;21.10;;;3.40;64.40;;;;;;5089502;28;20516;-75
2022/03/10 08:09:02;;;;;;;52.70;21.43;;;3.50;64.50;;;;;;5090878;28;20421;-75
2022/03/10 08:11:28;;;;;;;48.33;20.47;;;3.60;64.10;;;;;;5090678;28;20525;-76
2022/03/10 08:13:54;;;;;;;44.20;20.43;;;3.70;64.20;;;;;;5090896;28;20413;-76
2022/03/10 08:16:20;;;;;;;52.67;22.03;;;3.70;64.10;;;;;;5091851;28;20412;-73
2022/03/10 08:18:49;;;;;;;45.90;20.80;;;3.80;63.70;;;;;;5092455;28;20413;-76
2022/03/10 08:21:15;;;;;;;47.13;20.90;;;3.90;63.20;;;;;;5090069;28;20421;-77
2022/03/10 08:23:42;;;;;;;52.20;21.87;;;4.00;62.60;;;;;;5090846;28;21013;-76
2022/03/10 08:26:08;;;;;;;45.13;21.40;;;4.10;62.00;;;;;;5072737;28;20452;-76
2022/03/10 08:28:34;;;;;;;171.27;68.63;;;4.10;62.00;;;;;;5073155;28;21007;-77
2022/03/10 08:31:02;;;;;;;67.53;28.27;;;4.20;61.90;;;;;;5073800;28;20886;-78
2022/03/10 08:33:28;;;;;;;48.83;21.60;;;4.30;61.50;;;;;;5093379;28;20421;-77
2022/03/10 08:35:53;;;;;;;44.40;22.43;;;4.40;61.20;;;;;;5095483;28;20413;-76
2022/03/10 08:38:19;;;;;;;43.63;20.70;;;4.50;60.90;;;;;;5096723;28;20431;-77
2022/03/10 08:40:45;;;;;;;49.03;20.70;;;4.60;60.70;;;;;;5093519;28;20202;-74
2022/03/10 08:43:12;;;;;;;45.83;21.33;;;4.70;59.60;;;;;;5094350;28;20228;-75
2022/03/10 08:45:39;;;;;;;43.60;20.83;;;4.80;59.10;;;;;;5097885;28;20447;-77
2022/03/10 08:48:05;;;;;;;46.73;21.97;;;5.00;58.70;;;;;;5093054;28;20444;-76
2022/03/10 08:50:31;;;;;;;47.83;22.20;;;5.10;58.40;;;;;;5092502;28;20445;-76
2022/03/10 08:52:57;;;;;;;56.50;22.80;;;5.30;57.60;;;;;;5094576;28;20928;-76
2022/03/10 08:55:23;;;;;;;52.30;23.37;;;5.40;57.00;;;;;;5095234;28;20482;-77
2022/03/10 08:57:49;;;;;;;45.23;20.90;;;5.60;56.20;;;;;;5080122;28;20434;-77
2022/03/10 09:00:17;;;;;;;48.23;21.70;;;5.70;56.10;;;;;;5096512;28;20452;-75
2022/03/10 09:02:44;;;;;;;49.37;22.70;;;5.70;55.80;;;;;;5095519;28;20451;-75
2022/03/10 09:05:10;;;;;;;50.40;22.40;;;5.90;55.60;;;;;;5094025;28;20425;-76
2022/03/10 09:07:37;;;;;;;66.10;24.30;;;6.10;55.30;;;;;;5093256;28;20540;-75
2022/03/10 09:10:04;;;;;;;51.23;20.97;;;6.10;55.40;;;;;;5086642;28;20441;-76
2022/03/10 09:12:30;;;;;;;60.00;23.30;;;6.30;55.20;;;;;;5094037;28;20464;-77
2022/03/10 09:14:56;;;;;;;45.30;21.97;;;6.30;55.40;;;;;;5092008;28;20504;-75
2022/03/10 09:17:22;;;;;;;44.60;22.17;;;6.50;55.00;;;;;;5091547;28;20927;-76
2022/03/10 09:19:49;;;;;;;41.97;20.63;;;6.60;54.40;;;;;;5094967;28;20444;-76
2022/03/10 09:22:16;;;;;;;39.00;19.97;;;6.80;53.40;;;;;;5095545;28;20191;-76
2022/03/10 09:24:42;;;;;;;36.80;17.80;;;6.90;53.30;;;;;;5094108;28;20429;-74
2022/03/10 09:27:09;;;;;;;38.93;19.30;;;7.00;53.20;;;;;;5092770;28;20435;-77
2022/03/10 09:29:35;;;;;;;41.47;19.10;;;7.20;52.90;;;;;;5092677;28;20550;-75
2022/03/10 09:32:01;;;;;;;44.30;20.20;;;7.30;52.50;;;;;;5094288;28;20989;-76
2022/03/10 09:34:27;;;;;;;41.07;19.20;;;7.50;52.40;;;;;;5089898;28;20421;-76
2022/03/10 09:36:53;;;;;;;38.00;18.33;;;7.70;51.80;;;;;;5094171;28;20183;-76
2022/03/10 09:39:19;;;;;;;36.67;16.60;;;7.80;52.00;;;;;;5082111;28;20444;-74
2022/03/10 09:41:45;;;;;;;36.80;16.30;;;8.10;50.50;;;;;;5087038;28;20270;-74
2022/03/10 09:44:17;;;;;;;22.20;10.20;;;8.40;49.80;;;;;;5093442;28;20266;-76
2022/03/10 09:46:44;;;;;;;38.10;13.30;;;8.60;48.10;;;;;;5093766;28;20428;-74
2022/03/10 09:49:10;;;;;;;17.90;8.50;;;8.80;48.10;;;;;;5093237;28;20503;-77
2022/03/10 09:51:36;;;;;;;22.03;10.67;;;9.00;47.40;;;;;;5087575;28;20885;-73
2022/03/10 09:54:02;;;;;;;20.97;9.87;;;9.20;46.60;;;;;;5075413;28;20441;-74
2022/03/10 09:56:28;;;;;;;16.63;8.23;;;9.50;46.10;;;;;;5092937;28;20463;-75
2022/03/10 09:58:54;;;;;;;20.00;8.90;;;9.70;45.30;;;;;;5093593;28;20187;-76
2022/03/10 10:01:19;;;;;;;24.60;8.20;;;9.80;44.70;;;;;;5094517;28;20687;-74
2022/03/10 10:03:45;;;;;;;13.80;8.80;;;10.00;44.10;;;;;;5093946;28;20246;-73
2022/03/10 10:06:11;;;;;;;23.60;9.07;;;10.10;44.20;;;;;;5079684;28;20179;-75
2022/03/10 10:08:38;;;;;;;14.87;7.90;;;10.10;44.10;;;;;;5082310;28;20175;-75
2022/03/10 10:11:05;;;;;;;22.50;9.00;;;10.20;43.80;;;;;;5076418;28;20294;-74
2022/03/10 10:13:31;;;;;;;20.73;8.50;;;10.40;43.70;;;;;;5095388;28;20447;-73
2022/03/10 10:16:05;;;;;;;15.13;7.83;;;10.50;43.40;;;;;;5098923;28;20466;-73
2022/03/10 10:18:33;;;;;;;28.07;8.63;;;10.50;42.80;;;;;;5097121;28;20417;-75
2022/03/10 10:20:58;;;;;;;17.90;7.87;;;10.60;42.70;;;;;;5095451;28;20938;-74
2022/03/10 10:23:52;;;;;;;16.97;8.40;;;10.60;42.60;;;;;;5093459;28;20413;-72
2022/03/10 10:26:26;;;;;;;11.50;7.17;;;10.80;42.60;;;;;;5083636;28;20512;-74
2022/03/10 10:28:52;;;;;;;16.00;7.70;;;10.90;42.70;;;;;;5081165;28;20550;-73
2022/03/10 10:31:24;;;;;;;17.00;7.93;;;11.00;42.30;;;;;;5094379;28;20405;-74
2022/03/10 10:34:08;;;;;;;13.37;6.70;;;11.10;42.00;;;;;;5091325;28;20562;-74
2022/03/10 10:36:37;;;;;;;16.87;7.90;;;11.20;41.80;;;;;;5092190;28;20430;-76
2022/03/10 10:39:11;;;;;;;13.87;6.70;;;11.40;41.10;;;;;;5074453;28;20429;-75
2022/03/10 10:41:42;;;;;;;10.60;5.77;;;11.50;40.30;;;;;;5077959;28;21027;-75
2022/03/10 10:44:12;;;;;;;8.87;5.77;;;11.60;39.80;;;;;;5092598;28;20421;-76
2022/03/10 10:46:42;;;;;;;10.53;5.97;;;11.80;39.80;;;;;;5091487;28;20422;-72
2022/03/10 10:49:10;;;;;;;13.73;6.77;;;12.10;39.10;;;;;;5091923;28;20827;-72
2022/03/10 10:51:41;;;;;;;11.47;6.33;;;12.60;38.30;;;;;;5092849;28;20592;-74
2022/03/10 10:54:09;;;;;;;13.30;6.57;;;13.20;37.10;;;;;;5092143;28;20417;-74
2022/03/10 10:56:45;;;;;;;15.03;7.33;;;13.70;35.50;;;;;;5092535;28;20784;-73
2022/03/10 10:59:26;;;;;;;11.00;6.53;;;14.00;35.10;;;;;;5095230;28;20520;-76
2022/03/10 11:02:09;;;;;;;10.87;6.50;;;14.20;34.50;;;;;;5100347;28;20473;-75
2022/03/10 11:04:43;;;;;;;11.43;6.37;;;14.20;34.10;;;;;;5095974;28;20416;-75
2022/03/10 11:07:13;;;;;;;12.37;7.00;;;14.30;34.10;;;;;;5095644;28;20408;-75
2022/03/10 11:09:41;;;;;;;8.50;6.03;;;14.30;33.70;;;;;;5092454;28;20478;-72
2022/03/10 11:12:09;;;;;;;8.87;5.53;;;14.50;32.90;;;;;;5092159;28;20466;-74
2022/03/10 11:14:35;;;;;;;11.60;5.60;;;14.60;32.10;;;;;;5092069;28;20441;-73
2022/03/10 11:17:02;;;;;;;7.90;5.03;;;14.70;31.90;;;;;;5091049;28;20424;-74
2022/03/10 11:19:32;;;;;;;10.63;4.80;;;14.80;32.00;;;;;;5091804;28;20458;-73
2022/03/10 11:22:28;;;;;;;6.27;4.23;;;15.10;30.50;;;;;;5073267;28;20421;-73
2022/03/10 11:25:06;;;;;;;8.80;4.70;;;15.10;30.30;;;;;;5091978;28;21113;-75
2022/03/10 11:27:51;;;;;;;8.67;4.70;;;14.70;30.70;;;;;;5091269;28;20833;-75
2022/03/10 11:30:18;;;;;;;6.00;3.60;;;14.40;30.90;;;;;;5091406;28;20443;-74
2022/03/10 11:33:03;;;;;;;8.67;3.80;;;14.40;30.90;;;;;;5091994;28;20459;-75
2022/03/10 11:35:31;;;;;;;8.00;3.80;;;14.20;30.80;;;;;;5071613;28;20443;-74
2022/03/10 11:37:57;;;;;;;8.20;4.03;;;14.40;31.10;;;;;;5110605;28;20927;-74
2022/03/10 11:40:47;;;;;;;11.00;4.10;;;14.50;30.90;;;;;;5099403;28;20427;-73
2022/03/10 11:43:40;;;;;;;6.40;3.83;;;14.90;30.10;;;;;;5095207;28;20413;-72
2022/03/10 11:46:32;;;;;;;8.63;4.77;;;15.10;29.70;;;;;;5097723;28;20429;-76
2022/03/10 11:49:06;;;;;;;8.40;4.10;;;15.20;29.30;;;;;;5086080;28;21004;-74
2022/03/10 11:51:47;;;;;;;9.03;4.60;;;15.20;29.60;;;;;;5088191;28;20461;-73
2022/03/10 11:54:20;;;;;;;8.47;3.80;;;15.30;29.10;;;;;;5098347;28;20452;-74
2022/03/10 11:56:50;;;;;;;8.90;4.20;;;15.50;29.20;;;;;;5101238;28;21042;-74
2022/03/10 11:59:25;;;;;;;5.93;3.70;;;15.60;28.90;;;;;;5079326;28;20505;-74
2022/03/10 12:01:53;;;;;;;6.93;4.20;;;15.60;28.20;;;;;;5097760;28;20429;-73
2022/03/10 12:04:22;;;;;;;6.50;3.80;;;15.60;28.40;;;;;;5101348;28;20520;-75
2022/03/10 12:06:54;;;;;;;6.53;3.47;;;15.50;27.70;;;;;;5096248;28;20452;-73
2022/03/10 12:09:35;;;;;;;5.63;4.27;;;15.30;28.10;;;;;;5091990;28;20461;-75
2022/03/10 12:12:21;;;;;;;8.03;4.10;;;15.20;28.60;;;;;;5094294;28;20482;-73
2022/03/10 12:14:49;;;;;;;6.40;3.53;;;15.50;28.50;;;;;;5086652;28;20489;-74
2022/03/10 12:17:43;;;;;;;6.57;3.47;;;15.60;28.10;;;;;;5092905;28;20439;-73
2022/03/10 12:20:15;;;;;;;9.20;3.43;;;15.90;28.20;;;;;;5093599;28;20528;-75
2022/03/10 12:23:03;;;;;;;7.00;3.67;;;16.10;27.40;;;;;;5092794;28;20447;-74
2022/03/10 12:25:46;;;;;;;6.53;4.20;;;16.10;26.70;;;;;;5091823;28;20416;-74
2022/03/10 12:28:29;;;;;;;6.80;4.07;;;15.70;27.30;;;;;;5081639;28;20820;-74
2022/03/10 12:31:17;;;;;;;8.93;4.00;;;15.70;27.80;;;;;;5091557;28;20443;-73
2022/03/10 12:33:51;;;;;;;8.13;4.80;;;15.90;27.80;;;;;;5091327;28;20421;-73
2022/03/10 12:36:33;;;;;;;8.70;4.40;;;16.20;27.40;;;;;;5091076;28;20405;-75
2022/03/10 12:39:04;;;;;;;7.77;4.20;;;16.40;27.10;;;;;;5094252;28;20444;-74
2022/03/10 12:41:39;;;;;;;8.43;4.53;;;16.70;27.00;;;;;;5097624;28;21074;-75
2022/03/10 12:44:09;;;;;;;11.23;4.50;;;16.60;26.30;;;;;;5094593;28;20821;-73
2022/03/10 12:46:36;;;;;;;11.60;5.33;;;16.40;26.20;;;;;;5094971;28;20425;-74
2022/03/10 12:49:07;;;;;;;8.73;4.63;;;16.20;26.80;;;;;;5100951;28;20439;-75